createdAt,value
2019-06-20T00:00:44.781Z,4.45
2019-06-20T00:03:11.207Z,4.35
2019-06-20T00:05:38.203Z,4.55
2019-06-20T00:08:04.607Z,5.00
2019-06-20T00:10:31.015Z,4.55
2019-06-20T00:13:00.778Z,4.42
2019-06-20T00:15:26.080Z,4.85
2019-06-20T00:17:52.299Z,5.20
2019-06-20T00:20:18.614Z,4.80
2019-06-20T00:22:44.911Z,5.50
2019-06-20T00:25:11.760Z,5.33
2019-06-20T00:27:37.944Z,5.60
2019-06-20T00:30:19.762Z,5.40
2019-06-20T00:32:46.295Z,5.53
2019-06-20T00:35:13.454Z,5.75
2019-06-20T00:37:39.903Z,5.28
2019-06-20T00:40:07.857Z,5.28
2019-06-20T00:42:34.179Z,5.85
2019-06-20T00:45:00.463Z,6.20
2019-06-20T00:47:26.832Z,5.80
2019-06-20T00:49:53.116Z,5.92
2019-06-20T00:52:19.425Z,6.25
2019-06-20T00:54:45.617Z,7.25
2019-06-20T00:57:11.927Z,6.75
2019-06-20T00:59:38.517Z,6.58
2019-06-20T01:02:04.842Z,6.33
2019-06-20T01:04:31.220Z,6.92
2019-06-20T01:06:57.789Z,7.58
2019-06-20T01:09:23.947Z,6.72
2019-06-20T01:11:50.229Z,6.92
2019-06-20T01:14:16.765Z,7.92
2019-06-20T01:16:43.280Z,7.10
2019-06-20T01:19:09.878Z,6.58
2019-06-20T01:21:36.198Z,7.80
2019-06-20T01:24:03.111Z,7.12
2019-06-20T01:26:29.444Z,7.75
2019-06-20T01:28:55.681Z,7.58
2019-06-20T01:31:21.874Z,8.13
2019-06-20T01:33:48.071Z,9.20
2019-06-20T01:36:14.334Z,8.33
2019-06-20T01:38:43.328Z,8.80
2019-06-20T01:41:09.533Z,9.05
2019-06-20T01:43:49.439Z,8.75
2019-06-20T01:46:04.378Z,8.48
2019-06-20T01:48:31.501Z,8.45
2019-06-20T01:50:57.880Z,8.93
2019-06-20T01:53:24.169Z,9.25
2019-06-20T01:55:50.463Z,9.58
2019-06-20T01:58:16.925Z,9.53
2019-06-20T02:00:46.990Z,8.93
2019-06-20T02:03:13.829Z,9.73
2019-06-20T02:05:40.132Z,10.25
2019-06-20T02:08:06.612Z,10.65
2019-06-20T02:10:33.684Z,9.53
2019-06-20T02:13:09.008Z,10.65
2019-06-20T02:15:35.360Z,10.48
2019-06-20T02:18:03.007Z,11.65
2019-06-20T02:20:36.138Z,11.18
2019-06-20T02:23:03.788Z,11.08
2019-06-20T02:25:30.890Z,11.50
2019-06-20T02:27:57.350Z,12.28
2019-06-20T02:30:23.925Z,11.93
2019-06-20T02:32:50.126Z,12.35
2019-06-20T02:35:16.523Z,13.85
2019-06-20T02:37:43.233Z,13.93
2019-06-20T02:40:10.575Z,12.82
2019-06-20T02:42:37.103Z,13.62
2019-06-20T02:45:05.058Z,13.18
2019-06-20T02:47:31.287Z,12.98
2019-06-20T02:49:58.730Z,14.43
2019-06-20T02:52:25.355Z,13.58
2019-06-20T02:54:51.762Z,13.72
2019-06-20T02:57:18.087Z,15.38
2019-06-20T02:59:44.437Z,14.53
2019-06-20T03:02:10.873Z,16.20
2019-06-20T03:04:37.073Z,13.78
2019-06-20T03:07:03.536Z,14.63
2019-06-20T03:09:30.029Z,15.70
2019-06-20T03:11:56.438Z,14.98
2019-06-20T03:14:22.892Z,14.58
2019-06-20T03:16:49.217Z,15.05
2019-06-20T03:19:15.774Z,13.53
2019-06-20T03:21:42.401Z,13.78
2019-06-20T03:24:08.712Z,13.38
2019-06-20T03:26:36.230Z,14.47
2019-06-20T03:29:10.632Z,15.15
2019-06-20T03:31:37.173Z,13.70
2019-06-20T03:34:03.463Z,15.08
2019-06-20T03:36:29.824Z,14.93
2019-06-20T03:38:56.253Z,15.32
2019-06-20T03:41:22.471Z,14.28
2019-06-20T03:43:48.796Z,15.72
2019-06-20T03:46:15.036Z,15.00
2019-06-20T03:48:41.762Z,15.72
2019-06-20T03:51:08.425Z,15.10
2019-06-20T03:53:35.110Z,14.98
2019-06-20T03:56:01.536Z,15.83
2019-06-20T03:58:27.859Z,15.90
2019-06-20T04:00:54.366Z,17.12
2019-06-20T04:03:20.967Z,14.98
2019-06-20T04:05:47.466Z,16.50
2019-06-20T04:08:13.760Z,15.72
2019-06-20T04:10:40.344Z,16.70
2019-06-20T04:13:07.068Z,15.50
2019-06-20T04:15:33.440Z,15.55
2019-06-20T04:18:00.122Z,16.05
2019-06-20T04:20:27.151Z,16.12
2019-06-20T04:22:53.498Z,16.55
2019-06-20T04:25:20.058Z,17.07
2019-06-20T04:27:47.364Z,16.77
2019-06-20T04:30:14.466Z,15.25
2019-06-20T04:32:40.772Z,15.18
2019-06-20T04:35:07.607Z,15.05
2019-06-20T04:37:34.137Z,14.98
2019-06-20T04:40:00.429Z,15.00
2019-06-20T04:42:26.799Z,14.95
2019-06-20T04:44:55.005Z,14.35
2019-06-20T04:47:21.557Z,14.15
2019-06-20T04:49:47.761Z,14.25
2019-06-20T04:52:14.114Z,14.58
2019-06-20T04:54:40.883Z,15.08
2019-06-20T04:57:07.225Z,15.43
2019-06-20T04:59:33.894Z,14.87
2019-06-20T05:02:00.497Z,14.87
2019-06-20T05:04:27.396Z,15.38
2019-06-20T05:06:57.989Z,16.27
2019-06-20T05:09:24.770Z,14.85
2019-06-20T05:11:51.103Z,13.98
2019-06-20T05:14:17.714Z,14.83
2019-06-20T05:16:43.896Z,14.65
2019-06-20T05:19:10.121Z,14.10
2019-06-20T05:21:36.694Z,14.55
2019-06-20T05:24:03.413Z,14.47
2019-06-20T05:26:29.813Z,14.63
2019-06-20T05:28:56.114Z,15.45
2019-06-20T05:31:22.623Z,14.03
2019-06-20T05:33:48.937Z,14.20
2019-06-20T05:36:15.203Z,14.33
2019-06-20T05:38:41.620Z,14.30
2019-06-20T05:41:07.893Z,13.53
2019-06-20T05:43:34.161Z,13.58
2019-06-20T05:46:09.637Z,14.63
2019-06-20T05:48:29.800Z,13.18
2019-06-20T05:50:56.018Z,14.45
2019-06-20T05:53:22.360Z,13.98
2019-06-20T05:55:48.800Z,12.05
2019-06-20T05:58:15.554Z,13.13
2019-06-20T06:00:42.203Z,14.15
2019-06-20T06:03:08.653Z,14.00
2019-06-20T06:05:34.946Z,12.80
2019-06-20T06:08:01.135Z,14.10
2019-06-20T06:10:27.436Z,14.38
2019-06-20T06:12:53.911Z,14.65
2019-06-20T06:15:21.257Z,13.80
2019-06-20T06:17:47.511Z,13.70
2019-06-20T06:20:14.330Z,13.75
2019-06-20T06:22:44.556Z,13.22
2019-06-20T06:25:09.399Z,13.40
2019-06-20T06:27:35.654Z,13.18
2019-06-20T06:30:07.592Z,13.50
2019-06-20T06:32:40.077Z,13.38
2019-06-20T06:35:04.382Z,12.07
2019-06-20T06:37:30.955Z,13.60
2019-06-20T06:39:57.564Z,12.85
2019-06-20T06:42:24.560Z,12.80
2019-06-20T06:44:51.015Z,12.58
2019-06-20T06:47:17.429Z,13.55
2019-06-20T06:49:43.624Z,12.93
2019-06-20T06:52:09.921Z,12.78
2019-06-20T06:54:36.153Z,13.93
2019-06-20T06:57:03.021Z,13.30
2019-06-20T06:59:29.532Z,14.00
2019-06-20T07:01:56.242Z,14.03
2019-06-20T07:04:23.197Z,13.48
2019-06-20T07:06:49.594Z,12.98
2019-06-20T07:09:16.185Z,12.78
2019-06-20T07:11:42.719Z,13.90
2019-06-20T07:14:09.007Z,14.23
2019-06-20T07:16:35.267Z,13.83
2019-06-20T07:19:01.970Z,13.50
2019-06-20T07:21:28.426Z,13.95
2019-06-20T07:23:55.325Z,13.15
2019-06-20T07:26:21.544Z,14.50
2019-06-20T07:28:51.434Z,13.40
2019-06-20T07:31:16.811Z,13.72
2019-06-20T07:33:43.584Z,12.88
2019-06-20T07:36:09.770Z,13.75
2019-06-20T07:38:36.214Z,13.62
2019-06-20T07:41:03.179Z,12.60
2019-06-20T07:43:29.535Z,13.20
2019-06-20T07:46:02.591Z,12.50
2019-06-20T07:48:24.000Z,11.97
2019-06-20T07:50:50.826Z,10.95
2019-06-20T07:53:17.027Z,11.88
2019-06-20T07:55:43.215Z,11.03
2019-06-20T07:58:09.733Z,11.97
2019-06-20T08:00:36.188Z,11.05
2019-06-20T08:03:03.491Z,11.80
2019-06-20T08:05:30.195Z,11.75
2019-06-20T08:07:57.119Z,12.43
2019-06-20T08:10:23.919Z,12.33
2019-06-20T08:12:50.692Z,11.55
2019-06-20T08:15:18.140Z,10.40
2019-06-20T08:17:45.193Z,10.60
2019-06-20T08:20:12.429Z,10.98
2019-06-20T08:22:40.317Z,12.95
2019-06-20T08:25:07.819Z,12.58
2019-06-20T08:27:50.016Z,11.43
2019-06-20T08:30:19.816Z,11.48
2019-06-20T08:32:46.124Z,11.75
2019-06-20T08:35:13.057Z,12.35
2019-06-20T08:37:39.530Z,10.68
2019-06-20T08:40:06.752Z,11.18
2019-06-20T08:42:33.217Z,9.83
2019-06-20T08:44:59.548Z,10.98
2019-06-20T08:47:25.747Z,10.43
2019-06-20T08:49:52.216Z,9.65
2019-06-20T08:52:19.134Z,9.58
2019-06-20T08:54:45.368Z,8.63
2019-06-20T08:57:11.846Z,9.08
2019-06-20T08:59:38.524Z,9.30
2019-06-20T09:04:31.449Z,9.68
2019-06-20T09:06:59.160Z,9.35
2019-06-20T09:09:26.406Z,11.18
2019-06-20T09:11:53.900Z,10.45
2019-06-20T09:14:22.857Z,9.83
2019-06-20T09:16:49.468Z,9.03
2019-06-20T09:19:15.840Z,10.48
2019-06-20T09:21:42.223Z,10.55
2019-06-20T09:24:08.688Z,10.98
2019-06-20T09:26:35.292Z,12.30
2019-06-20T09:29:01.783Z,11.78
2019-06-20T09:31:28.240Z,12.00
2019-06-20T09:33:55.699Z,12.40
2019-06-20T09:36:22.330Z,12.00
2019-06-20T09:38:48.931Z,13.20
2019-06-20T09:41:15.383Z,13.13
2019-06-20T09:43:41.810Z,13.80
2019-06-20T09:46:08.594Z,12.47
2019-06-20T09:48:35.463Z,12.47
2019-06-20T09:51:01.921Z,12.33
2019-06-20T09:53:28.798Z,13.00
2019-06-20T09:55:55.671Z,12.20
2019-06-20T09:58:22.625Z,13.25
2019-06-20T10:00:50.770Z,12.07
2019-06-20T10:03:17.247Z,13.25
2019-06-20T10:05:43.669Z,11.45
2019-06-20T10:08:10.090Z,11.50
2019-06-20T10:10:36.636Z,10.40
2019-06-20T10:13:03.202Z,11.40
2019-06-20T10:15:31.325Z,10.40
2019-06-20T10:17:57.701Z,11.40
2019-06-20T10:20:25.752Z,10.65
2019-06-20T10:22:53.076Z,11.85
2019-06-20T10:25:20.859Z,10.15
2019-06-20T10:27:48.307Z,10.95
2019-06-20T10:30:19.547Z,11.65
2019-06-20T10:32:46.766Z,11.65
2019-06-20T10:35:13.684Z,11.50
2019-06-20T10:37:40.090Z,11.30
2019-06-20T10:40:07.308Z,10.30
2019-06-20T10:42:33.823Z,11.45
2019-06-20T10:45:00.570Z,11.85
2019-06-20T10:47:33.609Z,11.95
2019-06-20T10:49:56.074Z,12.70
2019-06-20T10:52:22.694Z,10.82
2019-06-20T10:54:49.312Z,11.78
2019-06-20T10:57:15.589Z,11.35
2019-06-20T10:59:42.723Z,10.75
2019-06-20T11:02:09.144Z,11.10
2019-06-20T11:04:35.621Z,10.10
2019-06-20T11:07:02.155Z,10.70
2019-06-20T11:09:28.555Z,11.73
2019-06-20T11:11:54.976Z,10.85
2019-06-20T11:14:21.422Z,11.28
2019-06-20T11:16:49.188Z,10.25
2019-06-20T11:19:16.365Z,11.08
2019-06-20T11:21:43.234Z,11.15
2019-06-20T11:24:09.617Z,10.58
2019-06-20T11:26:37.764Z,10.20
2019-06-20T11:29:04.580Z,10.70
2019-06-20T11:31:30.972Z,9.73
2019-06-20T11:33:57.409Z,11.05
2019-06-20T11:36:23.765Z,10.72
2019-06-20T11:38:50.519Z,9.88
2019-06-20T11:41:17.563Z,9.05
2019-06-20T11:43:44.540Z,8.50
2019-06-20T11:46:10.749Z,9.35
2019-06-20T11:48:38.405Z,9.30
2019-06-20T11:51:05.187Z,10.80
2019-06-20T11:53:33.665Z,9.38
2019-06-20T11:56:00.953Z,9.25
2019-06-20T11:58:27.659Z,9.43
2019-06-20T12:01:03.702Z,8.98
2019-06-20T12:03:22.195Z,8.45
2019-06-20T12:05:49.784Z,7.95
2019-06-20T12:08:16.308Z,9.23
2019-06-20T12:10:43.069Z,10.98
2019-06-20T12:13:10.420Z,9.43
2019-06-20T12:15:38.074Z,8.83
2019-06-20T12:18:05.310Z,8.10
2019-06-20T12:20:31.513Z,5.67
2019-06-20T12:22:58.020Z,5.22
2019-06-20T12:25:24.750Z,4.83
2019-06-20T12:27:51.552Z,4.72
2019-06-20T12:30:18.732Z,4.45
2019-06-20T12:32:46.676Z,5.22
2019-06-20T12:35:13.491Z,4.33
2019-06-20T12:37:40.565Z,5.00
2019-06-20T12:40:07.782Z,4.60
2019-06-20T12:42:34.135Z,3.90
2019-06-20T12:45:00.977Z,4.15
2019-06-20T12:47:27.163Z,4.58
2019-06-20T12:49:53.762Z,3.55
2019-06-20T12:52:20.259Z,3.77
2019-06-20T12:54:47.036Z,4.30
2019-06-20T12:57:16.131Z,4.12
2019-06-20T12:59:42.779Z,4.15
2019-06-20T13:02:10.530Z,4.67
2019-06-20T13:04:38.222Z,3.98
2019-06-20T13:07:05.355Z,3.62
2019-06-20T13:09:31.859Z,4.10
2019-06-20T13:11:58.305Z,3.27
2019-06-20T13:14:24.756Z,3.65
2019-06-20T13:16:50.965Z,4.53
2019-06-20T13:19:17.435Z,3.62
2019-06-20T13:21:44.649Z,3.67
2019-06-20T13:24:11.277Z,3.52
2019-06-20T13:26:37.478Z,3.40
2019-06-20T13:29:04.780Z,3.70
2019-06-20T13:31:31.200Z,5.35
2019-06-20T13:33:59.627Z,5.47
2019-06-20T13:36:26.754Z,5.37
2019-06-20T13:38:53.163Z,6.20
2019-06-20T13:41:19.506Z,6.83
2019-06-20T13:43:45.706Z,6.05
2019-06-20T13:46:12.022Z,5.58
2019-06-20T13:48:40.801Z,6.30
2019-06-20T13:51:08.354Z,6.55
2019-06-20T13:53:34.795Z,6.03
2019-06-20T13:56:01.356Z,5.20
2019-06-20T13:58:28.238Z,3.80
2019-06-20T14:00:54.814Z,3.62
2019-06-20T14:03:21.309Z,3.95
2019-06-20T14:05:47.598Z,4.00
2019-06-20T14:08:13.861Z,3.58
2019-06-20T14:10:40.168Z,4.15
2019-06-20T14:13:18.748Z,3.22
2019-06-20T14:15:35.322Z,3.30
2019-06-20T14:18:01.953Z,3.08
2019-06-20T14:20:28.443Z,3.27
2019-06-20T14:22:56.554Z,3.30
2019-06-20T14:25:23.256Z,3.08
2019-06-20T14:27:51.387Z,2.62
2019-06-20T14:30:18.642Z,2.70
2019-06-20T14:32:45.015Z,3.15
2019-06-20T14:35:12.048Z,3.50
2019-06-20T14:37:43.391Z,3.60
2019-06-20T14:40:09.729Z,3.62
2019-06-20T14:42:36.371Z,3.65
2019-06-20T14:45:06.437Z,3.00
2019-06-20T14:47:33.381Z,3.42
2019-06-20T14:50:00.015Z,3.37
2019-06-20T14:52:26.635Z,2.92
2019-06-20T14:54:54.015Z,3.30
2019-06-20T14:57:21.352Z,2.70
2019-06-20T14:59:48.385Z,2.83
2019-06-20T15:02:16.142Z,3.22
2019-06-20T15:04:44.386Z,3.05
2019-06-20T15:07:11.438Z,3.50
2019-06-20T15:09:37.810Z,2.40
2019-06-20T15:12:04.130Z,2.75
2019-06-20T15:14:31.101Z,2.98
2019-06-20T15:16:57.469Z,2.67
2019-06-20T15:19:23.695Z,2.87
2019-06-20T15:21:50.268Z,2.83
2019-06-20T15:24:16.874Z,2.85
2019-06-20T15:26:43.129Z,2.70
2019-06-20T15:29:09.563Z,3.02
2019-06-20T15:31:35.867Z,3.33
2019-06-20T15:34:02.581Z,3.55
2019-06-20T15:36:28.875Z,3.72
2019-06-20T15:38:55.450Z,2.92
2019-06-20T15:41:21.848Z,2.92
2019-06-20T15:43:49.782Z,3.30
2019-06-20T15:46:16.449Z,3.55
2019-06-20T15:48:42.875Z,3.37
2019-06-20T15:51:09.191Z,3.05
2019-06-20T15:53:35.517Z,3.55
2019-06-20T15:56:02.376Z,3.35
2019-06-20T15:58:28.894Z,3.70
2019-06-20T16:00:55.253Z,3.40
2019-06-20T16:03:21.676Z,3.05
2019-06-20T16:05:47.919Z,3.60
2019-06-20T16:08:14.162Z,3.10
2019-06-20T16:10:40.803Z,3.30
2019-06-20T16:13:07.319Z,3.05
2019-06-20T16:15:33.540Z,2.55
2019-06-20T16:17:59.781Z,2.70
2019-06-20T16:20:26.076Z,2.55
2019-06-20T16:22:52.650Z,3.37
2019-06-20T16:25:19.436Z,3.77
2019-06-20T16:27:45.827Z,3.15
2019-06-20T16:30:12.941Z,3.00
2019-06-20T16:32:39.420Z,3.92
2019-06-20T16:35:06.425Z,2.80
2019-06-20T16:37:32.658Z,3.20
2019-06-20T16:39:58.954Z,3.83
2019-06-20T16:42:25.179Z,3.62
2019-06-20T16:44:51.694Z,3.22
2019-06-20T16:47:18.198Z,3.70
2019-06-20T16:49:44.991Z,3.42
2019-06-20T16:52:11.332Z,3.10
2019-06-20T16:54:37.899Z,3.37
2019-06-20T16:57:04.382Z,3.92
2019-06-20T16:59:31.117Z,3.70
2019-06-20T17:01:57.477Z,3.70
2019-06-20T17:04:23.872Z,3.47
2019-06-20T17:06:50.830Z,3.40
2019-06-20T17:09:17.132Z,3.95
2019-06-20T17:11:43.894Z,3.50
2019-06-20T17:14:10.753Z,3.27
2019-06-20T17:16:37.329Z,3.02
2019-06-20T17:19:03.715Z,3.85
2019-06-20T17:21:29.913Z,3.60
2019-06-20T17:23:57.441Z,2.90
2019-06-20T17:26:23.811Z,2.98
2019-06-20T17:28:50.196Z,2.92
2019-06-20T17:31:16.988Z,2.92
2019-06-20T17:33:56.814Z,2.70
2019-06-20T17:36:18.236Z,2.20
2019-06-20T17:38:40.169Z,2.85
2019-06-20T17:41:06.593Z,2.37
2019-06-20T17:43:33.127Z,2.02
2019-06-20T17:45:59.583Z,3.08
2019-06-20T17:48:26.196Z,2.42
2019-06-20T17:50:52.519Z,2.00
2019-06-20T17:53:18.844Z,2.42
2019-06-20T17:55:45.172Z,2.47
2019-06-20T17:58:11.472Z,2.08
2019-06-20T18:00:37.975Z,1.98
2019-06-20T18:03:04.551Z,2.20
2019-06-20T18:05:30.812Z,2.20
2019-06-20T18:07:57.198Z,2.47
2019-06-20T18:10:24.014Z,2.67
2019-06-20T18:12:50.565Z,2.42
2019-06-20T18:15:17.649Z,3.00
2019-06-20T18:17:44.014Z,2.52
2019-06-20T18:20:10.977Z,2.40
2019-06-20T18:22:37.609Z,2.30
2019-06-20T18:25:05.271Z,2.60
2019-06-20T18:27:31.579Z,2.40
2019-06-20T18:29:57.813Z,2.12
2019-06-20T18:32:24.144Z,2.30
2019-06-20T18:35:01.603Z,2.17
2019-06-20T18:37:30.907Z,2.47
2019-06-20T18:39:47.037Z,2.40
2019-06-20T18:42:13.277Z,2.12
2019-06-20T18:44:39.861Z,2.27
2019-06-20T18:47:06.503Z,2.33
2019-06-20T18:49:32.839Z,2.08
2019-06-20T18:51:59.490Z,2.60
2019-06-20T18:54:26.090Z,2.85
2019-06-20T18:56:52.397Z,2.47
2019-06-20T18:59:19.106Z,2.75
2019-06-20T19:02:05.578Z,2.40
2019-06-20T19:04:45.325Z,2.62
2019-06-20T19:07:00.081Z,2.60
2019-06-20T19:09:26.447Z,2.92
2019-06-20T19:11:53.485Z,2.33
2019-06-20T19:14:20.318Z,2.58
2019-06-20T19:16:46.649Z,2.50
2019-06-20T19:19:13.186Z,2.37
2019-06-20T19:21:39.595Z,2.60
2019-06-20T19:24:05.897Z,2.90
2019-06-20T19:26:32.434Z,2.65
2019-06-20T19:28:59.226Z,2.37
2019-06-20T19:31:25.904Z,2.98
2019-06-20T19:33:52.263Z,2.20
2019-06-20T19:36:18.611Z,3.08
2019-06-20T19:38:45.004Z,2.92
2019-06-20T19:41:11.575Z,2.12
2019-06-20T19:43:37.988Z,2.72
2019-06-20T19:46:05.195Z,2.60
2019-06-20T19:48:31.941Z,2.55
2019-06-20T19:50:58.227Z,2.80
2019-06-20T19:53:24.899Z,3.58
2019-06-20T19:55:51.586Z,3.37
2019-06-20T19:58:18.396Z,3.25
2019-06-20T20:00:44.711Z,3.55
2019-06-20T20:03:12.280Z,2.87
2019-06-20T20:05:38.842Z,2.90
2019-06-20T20:08:05.389Z,3.10
2019-06-20T20:10:45.495Z,3.20
2019-06-20T20:13:15.102Z,2.95
2019-06-20T20:15:40.800Z,2.85
2019-06-20T20:18:07.300Z,2.70
2019-06-20T20:20:33.620Z,3.00
2019-06-20T20:23:00.291Z,3.37
2019-06-20T20:25:26.677Z,2.90
2019-06-20T20:27:53.665Z,2.95
2019-06-20T20:30:20.316Z,2.85
2019-06-20T20:32:46.533Z,3.02
2019-06-20T20:35:12.915Z,3.12
2019-06-20T20:37:39.243Z,2.80
2019-06-20T20:40:06.886Z,3.17
2019-06-20T20:42:33.083Z,2.98
2019-06-20T20:44:59.372Z,3.20
2019-06-20T20:47:28.401Z,2.90
2019-06-20T20:49:53.797Z,3.10
2019-06-20T20:52:20.388Z,3.02
2019-06-20T20:54:46.649Z,3.17
2019-06-20T20:57:13.115Z,3.02
2019-06-20T20:59:39.633Z,2.90
2019-06-20T21:02:06.155Z,2.90
2019-06-20T21:04:32.561Z,2.67
2019-06-20T21:06:59.135Z,2.92
2019-06-20T21:09:25.398Z,3.10
2019-06-20T21:11:51.590Z,3.20
2019-06-20T21:14:17.836Z,3.15
2019-06-20T21:16:44.450Z,3.10
2019-06-20T21:19:11.172Z,3.02
2019-06-20T21:21:37.511Z,2.80
2019-06-20T21:24:03.948Z,3.10
2019-06-20T21:26:30.519Z,2.60
2019-06-20T21:28:56.879Z,2.65
2019-06-20T21:31:23.281Z,2.95
2019-06-20T21:33:49.663Z,3.02
2019-06-20T21:36:15.942Z,2.50
2019-06-20T21:38:42.255Z,2.87
2019-06-20T21:41:08.524Z,2.90
2019-06-20T21:43:34.832Z,3.27
2019-06-20T21:46:01.332Z,3.08
2019-06-20T21:48:27.911Z,3.20
2019-06-20T21:50:54.214Z,3.27
2019-06-20T21:53:20.531Z,2.85
2019-06-20T21:55:46.974Z,2.87
2019-06-20T21:58:13.280Z,2.98
2019-06-20T22:00:44.258Z,2.77
2019-06-20T22:03:11.193Z,3.30
2019-06-20T22:05:38.424Z,2.97
2019-06-20T22:08:05.385Z,3.35
2019-06-20T22:10:31.559Z,3.10
2019-06-20T22:12:57.742Z,3.40
2019-06-20T22:15:24.264Z,3.50
2019-06-20T22:17:50.638Z,3.22
2019-06-20T22:20:17.450Z,2.67
2019-06-20T22:22:44.008Z,3.22
2019-06-20T22:25:10.562Z,3.27
2019-06-20T22:27:36.811Z,3.15
2019-06-20T22:30:06.836Z,3.67
2019-06-20T22:32:33.191Z,3.27
2019-06-20T22:34:59.456Z,3.55
2019-06-20T22:37:25.632Z,3.17
2019-06-20T22:39:52.089Z,2.77
2019-06-20T22:42:18.823Z,3.35
2019-06-20T22:44:45.114Z,3.00
2019-06-20T22:47:11.459Z,3.60
2019-06-20T22:49:37.641Z,3.87
2019-06-20T22:52:03.814Z,3.62
2019-06-20T22:54:30.037Z,3.58
2019-06-20T22:56:56.349Z,3.98
2019-06-20T22:59:22.652Z,3.05
2019-06-20T23:01:49.006Z,3.45
2019-06-20T23:04:15.301Z,3.20
2019-06-20T23:06:55.390Z,3.20
2019-06-20T23:09:09.613Z,3.37
2019-06-20T23:11:35.943Z,2.95
2019-06-20T23:14:02.228Z,3.45
2019-06-20T23:16:28.445Z,3.37
2019-06-20T23:18:54.885Z,4.10
2019-06-20T23:21:21.307Z,3.85
2019-06-20T23:23:47.545Z,3.52
2019-06-20T23:26:14.224Z,3.25
2019-06-20T23:28:40.565Z,3.08
2019-06-20T23:31:06.912Z,3.60
2019-06-20T23:33:33.286Z,3.77
2019-06-20T23:35:59.767Z,3.65
2019-06-20T23:38:26.028Z,3.50
2019-06-20T23:40:52.218Z,3.20
2019-06-20T23:43:18.485Z,3.35
2019-06-20T23:45:45.189Z,3.15
2019-06-20T23:48:11.452Z,4.33
2019-06-20T23:54:20.891Z,4.50
2019-06-20T23:56:47.151Z,3.90
2019-06-20T23:59:13.463Z,4.35
